Time;durP1;ratioP1;P1;durP2;ratioP2;P2;SDS_P1;SDS_P2;PMS_P1;PMS_P2;Temp;Humidity;BMP_temperature;BMP_pressure;BME280_temperature;BME280_humidity;BME280_pressure;Samples;Min_cycle;Max_cycle;Signal;HPM_P1;HPM_P2
2023/10/10 00:02:19;;;;;;;8.82;3.55;;;;;;;23.33;100.00;101727.50;143724;649;48004;-78
2023/10/10 00:04:50;;;;;;;9.25;3.83;;;;;;;23.28;100.00;101728.28;143717;574;52009;-79
2023/10/10 00:07:18;;;;;;;11.12;3.55;;;;;;;23.23;100.00;101724.69;143731;582;46002;-78
2023/10/10 00:09:46;;;;;;;11.60;3.83;;;;;;;23.23;100.00;101719.19;143728;574;46006;-79
2023/10/10 00:12:30;;;;;;;12.65;3.20;;;;;;;23.19;100.00;101720.78;143731;674;48002;-80
2023/10/10 00:14:57;;;;;;;9.82;3.47;;;;;;;23.26;100.00;101718.69;143728;679;47008;-79
2023/10/10 00:17:34;;;;;;;9.05;3.20;;;;;;;23.24;100.00;101721.66;143732;585;45012;-79
2023/10/10 00:20:22;;;;;;;12.45;3.87;;;;;;;23.17;100.00;101712.81;143728;589;47016;-80
2023/10/10 00:22:49;;;;;;;8.35;3.10;;;;;;;23.16;100.00;101716.66;143732;595;47002;-78
2023/10/10 00:25:18;;;;;;;9.48;3.67;;;;;;;23.22;100.00;101721.09;143725;585;48004;-78
2023/10/10 00:27:47;;;;;;;11.45;3.65;;;;;;;23.21;100.00;101716.69;143732;590;45012;-80
2023/10/10 00:30:16;;;;;;;9.55;3.72;;;;;;;23.21;100.00;101713.16;143731;629;45923;-79
2023/10/10 00:32:45;;;;;;;7.93;4.05;;;;;;;23.17;100.00;101710.88;143734;588;45017;-78
2023/10/10 00:35:12;;;;;;;8.02;3.05;;;;;;;23.11;100.00;101716.59;143730;573;46010;-79
2023/10/10 00:37:39;;;;;;;7.57;3.47;;;;;;;23.07;100.00;101718.19;143731;605;46002;-79
2023/10/10 00:40:09;;;;;;;11.70;3.87;;;;;;;23.08;100.00;101709.72;143729;695;46017;-79
2023/10/10 00:42:37;;;;;;;9.80;3.60;;;;;;;23.11;100.00;101711.94;143733;573;46004;-79
2023/10/10 00:45:06;;;;;;;8.68;3.47;;;;;;;23.10;100.00;101713.03;143729;724;47008;-79
2023/10/10 00:47:38;;;;;;;7.40;3.90;;;;;;;23.06;100.00;101711.03;143730;572;47002;-79
2023/10/10 00:50:15;;;;;;;11.32;3.72;;;;;;;23.07;100.00;101704.47;143724;667;48006;-80
2023/10/10 00:52:46;;;;;;;9.80;3.22;;;;;;;23.10;100.00;101706.72;143730;608;48000;-79
2023/10/10 00:55:13;;;;;;;10.07;3.67;;;;;;;23.14;100.00;101696.91;143727;648;46025;-79
2023/10/10 00:57:40;;;;;;;13.43;3.28;;;;;;;23.15;100.00;101696.62;143732;591;45012;-79
2023/10/10 03:03:18;;;;;;;11.20;4.40;;;;;;;22.39;100.00;101634.47;143723;630;52011;-79
2023/10/10 03:05:50;;;;;;;13.57;3.80;;;;;;;22.35;100.00;101630.59;143731;739;45928;-80
2023/10/10 03:11:35;;;;;;;9.95;4.15;;;;;;;22.35;100.00;101627.84;143723;590;47007;-78
2023/10/10 03:14:13;;;;;;;13.43;4.72;;;;;;;22.34;100.00;101629.75;143728;589;49002;-79
2023/10/10 03:16:44;;;;;;;16.80;3.90;;;;;;;22.35;100.00;101634.13;143731;624;45923;-80
2023/10/10 03:19:26;;;;;;;10.25;3.95;;;;;;;22.38;100.00;101635.56;143732;677;45012;-78
2023/10/10 03:22:19;;;;;;;15.13;3.78;;;;;;;22.36;100.00;101643.19;143729;617;47006;-79
2023/10/10 03:30:30;;;;;;;13.60;3.67;;;;;;;22.14;100.00;101637.72;143722;585;48926;-79
2023/10/10 03:33:08;;;;;;;13.55;3.90;;;;;;;22.07;100.00;101638.72;143731;610;45925;-79
2023/10/10 03:35:59;;;;;;;9.10;3.47;;;;;;;22.05;100.00;101637.34;143734;569;45010;-79
2023/10/10 03:38:43;;;;;;;9.45;3.10;;;;;;;22.07;100.00;101635.16;143721;694;50004;-79
2023/10/10 05:23:29;;;;;;;11.18;3.40;;;;;;;22.02;100.00;101646.87;143727;595;47003;-80
2023/10/10 05:23:34;;;;;;;42.55;7.10;;;;;;;22.35;100.00;101709.94;143727;632;46006;-81
2023/10/10 05:26:02;;;;;;;33.42;6.47;;;;;;;22.40;100.00;101708.09;143729;573;48002;-79
2023/10/10 05:28:32;;;;;;;25.00;6.78;;;;;;;22.44;100.00;101705.72;143728;586;46010;-81
2023/10/10 05:31:02;;;;;;;34.25;7.60;;;;;;;22.43;100.00;101706.78;143729;614;46012;-81
2023/10/10 05:33:30;;;;;;;32.38;6.53;;;;;;;22.50;100.00;101712.91;143722;598;47002;-79
2023/10/10 05:36:06;;;;;;;21.87;7.78;;;;;;;22.59;100.00;101713.28;143729;577;47004;-79
2023/10/10 05:38:39;;;;;;;27.13;6.18;;;;;;;22.64;100.00;101712.53;143719;664;48004;-82
2023/10/10 05:41:06;;;;;;;35.10;7.10;;;;;;;22.66;100.00;101722.16;143727;573;46015;-80
2023/10/10 05:43:34;;;;;;;23.05;6.43;;;;;;;22.71;100.00;101713.16;143727;601;47006;-79
2023/10/10 05:46:04;;;;;;;28.15;6.43;;;;;;;22.73;100.00;101719.22;143725;595;48002;-79
2023/10/10 05:48:35;;;;;;;22.48;7.72;;;;;;;22.79;100.00;101731.03;143729;603;45924;-80
2023/10/10 05:51:08;;;;;;;17.67;6.45;;;;;;;22.78;100.00;101732.94;143729;583;46012;-79
2023/10/10 05:53:35;;;;;;;18.42;7.47;;;;;;;22.76;100.00;101732.41;143726;572;47002;-80
2023/10/10 05:56:15;;;;;;;15.07;7.82;;;;;;;22.82;100.00;101739.56;143729;742;47000;-79
2023/10/10 05:58:47;;;;;;;28.45;8.63;;;;;;;22.87;100.00;101733.31;143728;735;46027;-79
2023/10/10 06:01:14;;;;;;;20.73;8.75;;;;;;;22.90;100.00;101740.22;143724;588;48004;-79
2023/10/10 06:03:42;;;;;;;27.58;9.00;;;;;;;22.99;100.00;101738.66;143725;575;48009;-80
2023/10/10 06:06:12;;;;;;;29.10;9.70;;;;;;;23.09;100.00;101744.25;143729;641;48004;-78
2023/10/10 06:08:42;;;;;;;20.25;10.00;;;;;;;23.15;100.00;101740.47;143727;572;46006;-80
2023/10/10 06:11:15;;;;;;;25.33;9.57;;;;;;;23.22;100.00;101742.22;143729;598;46005;-79
2023/10/10 06:13:43;;;;;;;27.05;10.98;;;;;;;23.28;100.00;101744.75;143724;717;47008;-79
2023/10/10 06:16:15;;;;;;;22.67;10.75;;;;;;;23.40;100.00;101760.19;143730;587;47004;-79
2023/10/10 06:18:47;;;;;;;27.77;11.73;;;;;;;23.46;100.00;101754.50;143724;573;47010;-80
2023/10/10 06:21:18;;;;;;;25.00;10.82;;;;;;;23.47;100.00;101744.34;143722;613;48006;-79
2023/10/10 06:23:45;;;;;;;22.40;11.68;;;;;;;23.52;100.00;101746.31;143723;573;47008;-81
2023/10/10 06:26:15;;;;;;;27.92;11.65;;;;;;;23.49;100.00;101757.78;143725;575;50004;-80
2023/10/10 06:28:48;;;;;;;28.05;11.35;;;;;;;23.48;100.00;101762.47;143721;568;47010;-79
2023/10/10 06:31:19;;;;;;;22.10;11.38;;;;;;;23.57;100.00;101766.38;143724;591;47017;-82
2023/10/10 06:33:52;;;;;;;27.17;11.60;;;;;;;23.58;100.00;101756.25;143722;570;47923;-80
2023/10/10 06:39:18;;;;;;;28.10;11.02;;;;;;;23.80;100.00;101766.31;143728;582;46010;-79
2023/10/10 06:41:47;;;;;;;21.20;11.07;;;;;;;23.88;100.00;101765.81;143728;616;48004;-79
2023/10/10 06:44:14;;;;;;;27.05;11.15;;;;;;;23.90;100.00;101764.47;143724;725;47008;-81
2023/10/10 06:46:42;;;;;;;25.33;11.73;;;;;;;23.98;100.00;101768.66;143728;615;47006;-79
2023/10/10 06:49:11;;;;;;;30.10;11.82;;;;;;;24.12;100.00;101771.75;143722;573;47008;-79
2023/10/10 06:51:42;;;;;;;29.77;10.30;;;;;;;24.19;100.00;101775.09;143729;597;45924;-80
2023/10/10 06:54:19;;;;;;;28.45;9.70;;;;;;;24.20;100.00;101774.00;143729;627;45927;-79
2023/10/10 06:59:48;;;;;;;27.87;10.13;;;;;;;24.41;100.00;101767.81;143720;576;47012;-79
2023/10/10 07:02:21;;;;;;;24.05;10.13;;;;;;;24.46;100.00;101771.41;143728;568;46004;-80
2023/10/10 07:04:54;;;;;;;26.05;10.50;;;;;;;24.52;100.00;101775.00;143727;568;47008;-80
2023/10/10 07:07:22;;;;;;;18.80;9.87;;;;;;;24.57;100.00;101768.72;143732;597;45010;-78
2023/10/10 07:09:57;;;;;;;26.25;9.43;;;;;;;24.64;100.00;101772.87;143729;568;45922;-80
2023/10/10 07:12:28;;;;;;;17.02;9.30;;;;;;;24.67;100.00;101764.09;143728;592;46006;-79
2023/10/10 07:14:56;;;;;;;24.92;10.30;;;;;;;24.72;100.00;101762.47;143727;671;45923;-78
2023/10/10 07:17:27;;;;;;;23.10;9.18;;;;;;;24.81;100.00;101763.62;143732;621;45010;-79
2023/10/10 07:22:47;;;;;;;18.80;8.80;;;;;;;25.10;100.00;101754.88;143724;603;47006;-78
2023/10/10 07:25:31;;;;;;;23.33;9.18;;;;;;;25.09;100.00;101762.31;143726;601;46006;-78
2023/10/10 07:28:01;;;;;;;17.95;8.93;;;;;;;25.20;100.00;101746.69;143721;598;49000;-79
2023/10/10 07:30:34;;;;;;;17.25;9.90;;;;;;;25.32;100.00;101745.56;143728;576;46023;-80
2023/10/10 07:33:04;;;;;;;17.55;8.77;;;;;;;25.38;100.00;101747.25;143726;601;47002;-79
2023/10/10 07:35:36;;;;;;;14.45;7.60;;;;;;;25.40;100.00;101745.84;143729;601;45925;-80
2023/10/10 07:38:03;;;;;;;15.38;7.90;;;;;;;25.43;100.00;101753.59;143732;574;45011;-78
2023/10/10 07:40:37;;;;;;;18.60;8.02;;;;;;;25.53;100.00;101751.94;143727;589;46928;-80
2023/10/10 07:43:07;;;;;;;13.85;7.20;;;;;;;25.68;100.00;101754.69;143730;602;45012;-80
2023/10/10 07:45:42;;;;;;;17.58;7.57;;;;;;;25.73;100.00;101751.13;143720;641;47006;-79
2023/10/10 07:50:55;;;;;;;23.92;8.80;;;;;;;26.00;100.00;101739.81;143727;623;45923;-80
2023/10/10 07:53:34;;;;;;;18.08;7.78;;;;;;;26.06;100.00;101737.00;143725;633;47002;-79
2023/10/10 07:56:03;;;;;;;14.98;8.13;;;;;;;26.13;100.00;101746.66;143725;589;47006;-79
2023/10/10 08:01:18;;;;;;;19.42;9.00;;;;;;;26.20;100.00;101746.41;143721;612;47008;-77
2023/10/10 08:03:46;;;;;;;14.85;8.25;;;;;;;26.32;100.00;101735.88;143731;575;45012;-79
2023/10/10 08:06:21;;;;;;;19.83;8.27;;;;;;;26.33;100.00;101739.44;143719;634;48006;-79
2023/10/10 08:09:09;;;;;;;20.08;6.57;;;;;;;26.33;100.00;101743.03;143732;595;46002;-81
2023/10/10 08:11:36;;;;;;;20.67;7.57;;;;;;;26.53;100.00;101730.28;143729;610;45928;-80
2023/10/10 08:14:07;;;;;;;14.52;6.82;;;;;;;26.61;100.00;101735.19;143730;676;45012;-80
2023/10/10 08:16:38;;;;;;;12.73;7.82;;;;;;;26.61;100.00;101732.44;143730;591;45926;-79
2023/10/10 08:19:07;;;;;;;18.05;7.70;;;;;;;26.77;100.00;101733.19;143731;599;46004;-79
2023/10/10 08:21:39;;;;;;;17.17;7.60;;;;;;;27.01;100.00;101734.47;143717;585;55004;-80
2023/10/10 08:24:08;;;;;;;16.55;7.22;;;;;;;27.21;100.00;101730.72;143731;581;45012;-80
2023/10/10 08:26:41;;;;;;;16.30;6.82;;;;;;;27.29;100.00;101727.38;143727;647;46925;-80
2023/10/10 08:29:13;;;;;;;11.12;6.82;;;;;;;27.32;100.00;101725.97;143728;625;47002;-80
2023/10/10 08:31:44;;;;;;;20.37;6.95;;;;;;;27.47;100.00;101733.34;143729;639;45928;-79
2023/10/10 08:34:11;;;;;;;10.57;5.90;;;;;;;27.64;100.00;101736.50;143714;586;49004;-80
2023/10/10 08:36:43;;;;;;;15.27;5.62;;;;;;;27.66;100.00;101727.91;143729;580;45926;-80
2023/10/10 08:39:25;;;;;;;19.37;6.62;;;;;;;27.83;100.00;101724.72;143728;600;47000;-80
2023/10/10 08:41:53;;;;;;;15.40;6.35;;;;;;;28.09;100.00;101716.97;143726;705;46010;-80
2023/10/10 08:44:20;;;;;;;10.73;5.78;;;;;;;28.24;100.00;101715.19;143727;688;47004;-81
2023/10/10 08:46:49;;;;;;;20.37;6.05;;;;;;;28.24;100.00;101715.19;143727;592;47007;-79
2023/10/10 08:49:16;;;;;;;15.93;6.07;;;;;;;28.31;100.00;101712.06;143725;739;48002;-79
2023/10/10 08:51:44;;;;;;;10.20;4.75;;;;;;;28.41;100.00;101712.75;143727;588;47008;-80
2023/10/10 08:54:12;;;;;;;13.35;5.18;;;;;;;28.71;100.00;101715.41;143727;620;48004;-80
2023/10/10 08:56:59;;;;;;;15.70;5.62;;;;;;;28.64;100.00;101709.41;143725;652;46006;-80
2023/10/10 08:59:28;;;;;;;10.77;5.78;;;;;;;29.61;100.00;101653.69;143727;699;47002;-80
2023/10/10 09:02:19;;;;;;;17.83;5.80;;;;;;;34.39;99.72;101568.09;143723;683;47010;-80
2023/10/10 09:04:46;;;;;;;11.75;5.28;;;;;;;37.47;73.40;101553.13;143729;624;46002;-79
2023/10/10 09:10:18;;;;;;;11.23;4.62;;;;;;;37.11;62.94;101693.06;143729;648;46002;-80
2023/10/10 09:12:53;;;;;;;11.73;4.32;;;;;;;35.85;68.31;101697.63;143728;599;46008;-81
2023/10/10 09:15:21;;;;;;;14.65;5.45;;;;;;;34.81;68.97;101690.81;143724;576;46015;-80
2023/10/10 09:17:48;;;;;;;19.58;5.53;;;;;;;34.15;73.98;101683.91;143726;601;46006;-81
2023/10/10 09:20:32;;;;;;;13.13;5.10;;;;;;;33.69;76.86;101686.38;143728;724;48002;-80
2023/10/10 09:23:11;;;;;;;8.60;4.25;;;;;;;33.61;77.51;101690.03;143726;592;47009;-80
2023/10/10 09:25:42;;;;;;;14.93;5.00;;;;;;;33.58;77.58;101682.34;143726;598;48002;-80
2023/10/10 09:28:15;;;;;;;15.60;5.30;;;;;;;33.10;78.66;101669.19;143729;610;45921;-80
2023/10/10 09:30:49;;;;;;;10.73;4.68;;;;;;;32.91;80.47;101677.06;143732;596;45011;-81
2023/10/10 09:36:09;;;;;;;11.48;5.07;;;;;;;33.08;82.61;101657.56;143723;580;47012;-80
2023/10/10 09:38:43;;;;;;;15.43;5.20;;;;;;;33.07;84.79;101657.91;143729;587;45926;-80
2023/10/10 09:41:14;;;;;;;;;;;;;;;32.93;83.79;101658.88;143727;985;47002;-79
2023/10/10 09:50:34;;;;;;;18.80;4.93;;;;;;;32.74;84.64;101650.84;143721;580;47006;-80
2023/10/10 09:52:50;;;;;;;22.95;5.68;;;;;;;32.57;87.71;101657.22;143723;592;47002;-80
2023/10/10 09:58:16;;;;;;;12.98;4.95;;;;;;;32.09;91.64;101655.34;143722;647;47004;-79
2023/10/10 10:00:47;;;;;;;12.95;4.78;;;;;;;32.01;93.16;101657.78;143729;581;45925;-81
2023/10/10 10:06:57;;;;;;;13.80;5.10;;;;;;;31.74;93.18;101650.50;143724;597;47008;-80
2023/10/10 10:10:09;;;;;;;11.90;5.18;;;;;;;31.69;95.55;101647.84;143730;603;45931;-79
2023/10/10 10:13:00;;;;;;;22.05;5.12;;;;;;;31.67;96.36;101644.56;143729;608;46000;-79
2023/10/10 10:15:57;;;;;;;9.50;4.35;;;;;;;31.57;96.68;101645.66;143731;567;47004;-80
2023/10/10 10:18:27;;;;;;;9.73;4.82;;;;;;;31.19;98.07;101652.50;143728;578;46010;-80
2023/10/10 10:24:26;;;;;;;12.43;4.95;;;;;;;31.02;98.51;101636.50;143719;596;48021;-79
2023/10/10 10:33:09;;;;;;;15.45;5.05;;;;;;;31.15;100.00;101627.31;143727;641;46008;-80
2023/10/10 10:36:16;;;;;;;14.07;4.85;;;;;;;31.02;100.00;101624.62;143713;602;54004;-80
2023/10/10 10:39:17;;;;;;;18.08;5.05;;;;;;;30.98;100.00;101614.16;143727;584;47002;-80
2023/10/10 10:44:58;;;;;;;16.60;4.32;;;;;;;31.15;100.00;101607.91;143720;699;50004;-79
2023/10/10 10:47:56;;;;;;;14.52;4.50;;;;;;;30.78;100.00;101607.16;143726;586;47006;-80
2023/10/10 10:50:46;;;;;;;13.90;4.57;;;;;;;30.81;100.00;101598.19;143730;604;46006;-80
2023/10/10 10:53:30;;;;;;;13.95;4.75;;;;;;;30.88;100.00;101600.56;143730;574;45928;-80
2023/10/10 10:56:37;;;;;;;;;;;;;;;30.88;100.00;101600.56;143735;982;45012;-79
2023/10/10 10:59:12;;;;;;;9.20;4.25;;;;;;;30.91;100.00;101596.31;143723;607;48004;-79
2023/10/10 11:01:45;;;;;;;24.00;5.40;;;;;;;31.06;100.00;101587.59;143733;575;45010;-81
2023/10/10 11:04:38;;;;;;;14.40;4.60;;;;;;;31.10;100.00;101587.75;143729;568;46010;-78
2023/10/10 11:07:09;;;;;;;14.35;4.30;;;;;;;31.09;99.94;101580.56;143722;673;47010;-78
2023/10/10 11:09:39;;;;;;;16.20;4.53;;;;;;;31.06;100.00;101582.03;143718;579;51008;-78
2023/10/10 11:12:06;;;;;;;18.25;5.03;;;;;;;31.08;100.00;101588.09;143725;717;47010;-78
2023/10/10 11:14:35;;;;;;;12.27;4.28;;;;;;;31.10;100.00;101576.66;143729;713;46011;-78
2023/10/10 11:17:03;;;;;;;16.60;4.12;;;;;;;30.89;100.00;101576.37;143731;591;45012;-77
2023/10/10 11:22:14;;;;;;;14.35;4.40;;;;;;;31.04;100.00;101573.22;143724;581;48005;-77
2023/10/10 11:24:47;;;;;;;12.25;3.75;;;;;;;30.95;100.00;101569.59;143730;588;45922;-76
2023/10/10 11:27:14;;;;;;;9.30;4.20;;;;;;;31.00;100.00;101563.88;143727;607;47006;-77
2023/10/10 11:29:44;;;;;;;12.52;4.30;;;;;;;30.93;100.00;101567.09;143719;589;47005;-77
2023/10/10 11:32:46;;;;;;;10.25;4.07;;;;;;;30.98;100.00;101566.97;143730;569;47004;-77
2023/10/10 11:35:22;;;;;;;10.68;4.18;;;;;;;30.88;100.00;101567.28;143725;577;47010;-81
2023/10/10 11:38:06;;;;;;;12.18;4.55;;;;;;;30.90;100.00;101561.38;143728;586;47004;-79
2023/10/10 11:40:33;;;;;;;22.08;4.40;;;;;;;30.93;100.00;101567.09;143729;626;45923;-79
2023/10/10 11:43:05;;;;;;;17.67;5.75;;;;;;;30.87;100.00;101562.03;143730;584;48002;-81
2023/10/10 11:45:51;;;;;;;22.13;5.12;;;;;;;30.87;99.75;101559.25;143725;681;49012;-78
2023/10/10 11:48:18;;;;;;;16.80;4.28;;;;;;;30.85;100.00;101556.81;143732;604;45012;-78
2023/10/10 11:50:52;;;;;;;13.20;4.12;;;;;;;30.77;100.00;101560.31;143730;619;47008;-79
2023/10/10 11:53:27;;;;;;;14.55;4.70;;;;;;;30.75;100.00;101557.03;143725;583;50004;-79
2023/10/10 11:55:55;;;;;;;10.35;4.40;;;;;;;30.68;100.00;101561.09;143731;586;45921;-81
2023/10/10 11:58:35;;;;;;;10.13;3.85;;;;;;;30.58;100.00;101555.00;143730;585;46017;-80
2023/10/10 12:01:06;;;;;;;13.18;4.22;;;;;;;30.49;100.00;101549.34;143730;598;46023;-77
2023/10/10 12:03:42;;;;;;;14.20;4.10;;;;;;;30.48;100.00;101550.47;143731;629;47002;-78
2023/10/10 12:06:26;;;;;;;9.40;3.70;;;;;;;30.44;100.00;101546.69;143731;573;45922;-78
2023/10/10 12:08:53;;;;;;;;;;;;;;;30.52;100.00;101541.22;143735;977;46010;-79
2023/10/10 12:11:21;;;;;;;12.68;4.37;;;;;;;30.53;100.00;101544.81;143729;632;48010;-80
2023/10/10 12:13:50;;;;;;;8.27;4.65;;;;;;;30.48;100.00;101544.94;143731;634;47002;-78
2023/10/10 12:16:17;;;;;;;14.00;5.25;;;;;;;30.49;100.00;101549.34;143730;623;46013;-78
2023/10/10 12:18:49;;;;;;;13.62;5.30;;;;;;;30.49;100.00;101541.03;143717;671;54004;-79
2023/10/10 12:21:23;;;;;;;8.43;3.78;;;;;;;30.46;100.00;101545.22;143730;602;45924;-79
2023/10/10 12:23:55;;;;;;;10.75;4.28;;;;;;;30.32;100.00;101530.62;143726;583;48004;-78
2023/10/10 12:26:22;;;;;;;8.60;3.90;;;;;;;30.27;100.00;101536.31;143726;665;49010;-78
2023/10/10 12:28:52;;;;;;;13.75;3.97;;;;;;;30.27;100.00;101533.53;143727;583;48006;-79
2023/10/10 12:31:22;;;;;;;16.62;4.00;;;;;;;30.15;100.00;101525.78;143730;573;45924;-79
2023/10/10 12:33:52;;;;;;;11.10;4.00;;;;;;;30.02;100.00;101525.47;143733;573;45010;-78
2023/10/10 12:36:28;;;;;;;9.05;3.85;;;;;;;29.99;100.00;101520.59;143733;610;45012;-78
2023/10/10 12:38:55;;;;;;;9.52;3.97;;;;;;;29.97;100.00;101516.47;143731;783;46004;-78
2023/10/10 12:41:22;;;;;;;8.68;4.65;;;;;;;29.95;100.00;101517.59;143729;601;46008;-78
2023/10/10 12:43:49;;;;;;;15.77;3.92;;;;;;;29.98;100.00;101518.94;143733;581;46004;-79
2023/10/10 12:46:17;;;;;;;11.05;3.85;;;;;;;29.89;100.00;101513.28;143731;574;45922;-78
2023/10/10 12:48:46;;;;;;;10.70;4.22;;;;;;;29.65;100.00;101513.53;143724;570;47006;-79
2023/10/10 12:51:13;;;;;;;11.20;3.62;;;;;;;29.65;100.00;101508.81;143725;642;49008;-77
2023/10/10 12:53:42;;;;;;;12.27;3.72;;;;;;;29.62;100.00;101512.19;143728;575;47006;-79
2023/10/10 12:56:17;;;;;;;13.18;4.72;;;;;;;29.48;100.00;101514.16;143720;588;49006;-78
2023/10/10 12:58:51;;;;;;;10.00;3.83;;;;;;;29.40;100.00;101506.56;143725;584;47006;-79
2023/10/10 13:01:23;;;;;;;13.80;4.80;;;;;;;29.40;100.00;101515.72;143729;573;48004;-78
2023/10/10 13:03:50;;;;;;;11.63;4.97;;;;;;;29.40;100.00;101515.72;143729;722;47006;-79
2023/10/10 13:06:17;;;;;;;13.02;3.95;;;;;;;29.35;100.00;101513.03;143730;577;46012;-78
2023/10/10 13:08:48;;;;;;;12.45;4.87;;;;;;;29.39;100.00;101511.28;143728;567;47006;-79
2023/10/10 13:11:16;;;;;;;12.35;4.07;;;;;;;29.37;100.00;101512.75;143731;607;45923;-79
2023/10/10 13:13:46;;;;;;;14.68;4.40;;;;;;;29.00;100.00;101516.16;143734;575;45011;-79
2023/10/10 13:16:23;;;;;;;9.15;3.85;;;;;;;28.97;100.00;101507.63;143731;567;45922;-80
2023/10/10 13:18:57;;;;;;;10.63;4.03;;;;;;;28.95;100.00;101507.13;143727;657;47006;-79
2023/10/10 13:21:26;;;;;;;;;;;;;;;29.05;100.00;101510.53;143735;985;45924;-78
2023/10/10 13:23:53;;;;;;;10.70;5.18;;;;;;;29.03;100.00;101521.06;143726;586;49002;-78
2023/10/10 13:26:20;;;;;;;13.70;4.03;;;;;;;29.02;100.00;101513.91;143725;608;47004;-78
2023/10/10 13:28:47;;;;;;;11.70;3.72;;;;;;;29.01;100.00;101519.75;143725;579;47004;-78
2023/10/10 13:31:17;;;;;;;11.27;4.03;;;;;;;28.70;100.00;101514.72;143730;610;46027;-77
2023/10/10 13:33:45;;;;;;;12.60;4.30;;;;;;;28.68;100.00;101514.22;143731;666;47004;-80
2023/10/10 13:36:20;;;;;;;13.60;3.75;;;;;;;28.82;100.00;101515.09;143730;627;46010;-78
2023/10/10 13:39:05;;;;;;;8.88;4.07;;;;;;;29.00;100.00;101505.09;143732;594;45012;-84
2023/10/10 13:41:36;;;;;;;9.85;4.82;;;;;;;28.95;100.00;101507.97;143727;676;46008;-79
2023/10/10 13:44:04;;;;;;;10.05;3.92;;;;;;;28.98;100.00;101503.75;143732;573;46006;-78
2023/10/10 13:46:33;;;;;;;8.63;4.18;;;;;;;29.01;100.00;101505.91;143730;591;46006;-78
2023/10/10 13:49:00;;;;;;;9.25;3.87;;;;;;;28.96;100.00;101506.00;143724;580;47006;-79
2023/10/10 13:51:28;;;;;;;12.18;3.80;;;;;;;28.95;100.00;101507.97;143731;599;45924;-78
2023/10/10 13:53:56;;;;;;;9.75;4.70;;;;;;;28.93;100.00;101501.91;143733;567;46006;-79
2023/10/10 13:56:24;;;;;;;10.32;4.07;;;;;;;28.82;100.00;101515.09;143718;567;51006;-79
2023/10/10 13:58:52;;;;;;;13.50;5.22;;;;;;;28.96;100.00;101508.75;143730;590;46016;-79
2023/10/10 14:01:36;;;;;;;13.65;5.20;;;;;;;28.84;100.00;101510.09;143723;572;49002;-78
2023/10/10 14:04:15;;;;;;;10.23;3.95;;;;;;;28.78;100.00;101511.28;143728;594;49004;-78
2023/10/10 14:06:47;;;;;;;13.60;3.58;;;;;;;28.73;100.00;101500.31;143730;573;47011;-79
2023/10/10 14:09:31;;;;;;;8.23;3.60;;;;;;;28.77;100.00;101501.34;143723;611;48003;-79
2023/10/10 14:12:03;;;;;;;12.00;4.37;;;;;;;28.88;100.00;101497.31;143729;633;46008;-78
2023/10/10 14:14:30;;;;;;;14.00;4.75;;;;;;;28.90;100.00;101502.50;143735;568;45010;-78
2023/10/10 14:16:57;;;;;;;16.33;4.12;;;;;;;28.73;100.00;101492.03;143730;601;46012;-78
2023/10/10 14:19:24;;;;;;;17.58;5.03;;;;;;;28.59;100.00;101494.75;143734;596;45012;-78
2023/10/10 14:21:54;;;;;;;12.05;4.90;;;;;;;28.60;100.00;101499.16;143731;577;45924;-79
2023/10/10 14:24:22;;;;;;;11.12;3.80;;;;;;;28.47;100.00;101497.16;143729;581;47004;-79
2023/10/10 14:26:49;;;;;;;17.75;4.82;;;;;;;28.44;100.00;101501.34;143725;601;47012;-78
2023/10/10 14:29:18;;;;;;;12.35;4.28;;;;;;;28.43;100.00;101497.75;143727;600;47006;-77
2023/10/10 14:31:45;;;;;;;8.90;4.22;;;;;;;28.48;100.00;101494.09;143721;592;45923;-78
2023/10/10 14:34:20;;;;;;;30.00;5.12;;;;;;;28.43;100.00;101506.06;143733;717;46004;-78
2023/10/10 14:36:50;;;;;;;15.20;4.43;;;;;;;28.30;100.00;101512.34;143726;579;46012;-78
2023/10/10 14:39:36;;;;;;;7.40;3.90;;;;;;;28.31;100.00;101514.00;143726;569;47006;-77
2023/10/10 14:42:03;;;;;;;9.55;5.07;;;;;;;28.31;100.00;101513.16;143722;588;48004;-79
2023/10/10 14:44:31;;;;;;;13.70;4.28;;;;;;;28.29;100.00;101513.47;143732;567;46009;-78
2023/10/10 14:46:58;;;;;;;9.98;4.10;;;;;;;28.36;100.00;101511.13;143732;578;46004;-79
2023/10/10 14:49:30;;;;;;;14.02;4.75;;;;;;;28.42;100.00;101509.09;143730;598;46006;-78
2023/10/10 14:52:03;;;;;;;18.40;4.93;;;;;;;28.42;100.00;101504.41;143731;567;45924;-79
2023/10/10 14:54:31;;;;;;;15.25;4.43;;;;;;;28.48;100.00;101509.84;143727;602;48004;-78
2023/10/10 14:56:58;;;;;;;13.62;4.30;;;;;;;28.42;100.00;101514.63;143730;591;46010;-80
2023/10/10 14:59:31;;;;;;;13.73;4.22;;;;;;;28.47;100.00;101520.06;143726;601;47006;-80
2023/10/10 15:02:04;;;;;;;12.35;4.50;;;;;;;28.51;100.00;101514.75;143729;573;45923;-79
2023/10/10 15:04:33;;;;;;;11.30;4.62;;;;;;;28.49;100.00;101519.78;143731;611;46006;-79
2023/10/10 15:07:00;;;;;;;14.00;5.47;;;;;;;28.48;100.00;101523.69;143725;594;48006;-79
2023/10/10 15:09:27;;;;;;;12.70;6.00;;;;;;;28.47;100.00;101522.03;143728;612;48006;-79
2023/10/10 15:11:58;;;;;;;12.63;5.37;;;;;;;28.42;100.00;101526.50;143731;583;45924;-81
2023/10/10 15:14:26;;;;;;;9.70;4.82;;;;;;;28.42;100.00;101534.81;143734;607;45010;-80
2023/10/10 15:16:53;;;;;;;14.95;5.03;;;;;;;28.40;100.00;101536.22;143730;576;45921;-78
2023/10/10 15:19:20;;;;;;;14.13;5.00;;;;;;;28.33;100.00;101536.59;143732;583;45013;-80
2023/10/10 15:21:50;;;;;;;13.48;5.75;;;;;;;28.26;100.00;101544.44;143731;598;45924;-81
2023/10/10 15:24:19;;;;;;;13.60;4.97;;;;;;;28.24;100.00;101555.78;143731;586;47002;-79
2023/10/10 15:26:46;;;;;;;15.07;4.80;;;;;;;28.26;100.00;101548.03;143726;576;48010;-79
2023/10/10 15:29:14;;;;;;;14.57;5.32;;;;;;;28.21;100.00;101547.28;143725;585;47006;-79
2023/10/10 15:31:41;;;;;;;12.35;5.75;;;;;;;28.16;100.00;101542.66;143727;576;46004;-80
2023/10/10 15:34:13;;;;;;;13.20;5.20;;;;;;;28.13;100.00;101541.31;143731;586;47002;-80
2023/10/10 15:36:46;;;;;;;12.23;4.68;;;;;;;28.17;100.00;101551.75;143731;586;45922;-79
2023/10/10 15:39:13;;;;;;;14.68;5.18;;;;;;;28.14;100.00;101561.47;143727;628;47006;-79
2023/10/10 15:41:42;;;;;;;17.35;4.78;;;;;;;28.16;100.00;101550.94;143730;599;45924;-79
2023/10/10 15:44:12;;;;;;;15.05;5.05;;;;;;;27.91;100.00;101558.41;143729;581;47014;-80
2023/10/10 15:46:40;;;;;;;14.43;5.82;;;;;;;27.98;100.00;101547.84;143731;574;45922;-79
2023/10/10 15:49:12;;;;;;;19.58;5.68;;;;;;;27.91;100.00;101558.41;143731;566;46006;-81
2023/10/10 15:51:39;;;;;;;17.30;6.37;;;;;;;27.98;100.00;101569.09;143730;597;46009;-79
2023/10/10 15:54:09;;;;;;;22.45;6.65;;;;;;;27.90;100.00;101561.47;143732;637;46006;-80
2023/10/10 15:56:37;;;;;;;14.93;6.18;;;;;;;27.90;100.00;101565.06;143730;574;46006;-79
2023/10/10 15:59:05;;;;;;;14.13;6.32;;;;;;;27.93;100.00;101560.91;143730;650;46005;-80
2023/10/10 16:01:34;;;;;;;10.73;5.53;;;;;;;27.97;100.00;101564.72;143730;572;46002;-79
2023/10/10 16:04:13;;;;;;;16.15;5.60;;;;;;;27.97;100.00;101570.25;143732;599;46006;-79
2023/10/10 16:06:42;;;;;;;20.25;6.82;;;;;;;27.93;100.00;101569.19;143727;567;47005;-80
2023/10/10 16:09:11;;;;;;;23.87;7.25;;;;;;;27.89;100.00;101577.22;143730;575;46006;-78
2023/10/10 16:11:40;;;;;;;25.83;8.65;;;;;;;27.82;100.00;101572.06;143731;618;46008;-79
2023/10/10 16:14:11;;;;;;;28.33;7.50;;;;;;;27.72;100.00;101579.63;143732;596;46011;-79
2023/10/10 16:16:45;;;;;;;18.60;6.95;;;;;;;27.72;100.00;101576.88;143724;598;48010;-79